sensor_id;sensor_type;location;lat;lon;timestamp;pressure;altitude;pressure_sealevel;temperature;humidity
62025;BME280;47978;49.118;12.146;2023-06-22T00:02:52;97673.00;;;15.62;100.00
62025;BME280;47978;49.118;12.146;2023-06-22T00:06:53;97668.59;;;15.61;100.00
62025;BME280;47978;49.118;12.146;2023-06-22T00:10:56;97673.84;;;15.53;100.00
62025;BME280;47978;49.118;12.146;2023-06-22T00:14:57;97667.47;;;15.53;100.00
62025;BME280;47978;49.118;12.146;2023-06-22T00:18:59;97654.00;;;15.55;100.00
62025;BME280;47978;49.118;12.146;2023-06-22T00:23:00;97634.38;;;15.51;100.00
62025;BME280;47978;49.118;12.146;2023-06-22T00:27:03;97630.13;;;15.45;100.00
62025;BME280;47978;49.118;12.146;2023-06-22T00:31:05;97623.41;;;15.46;100.00
62025;BME280;47978;49.118;12.146;2023-06-22T00:35:07;97638.44;;;15.54;100.00
62025;BME280;47978;49.118;12.146;2023-06-22T00:39:08;97629.75;;;15.56;100.00
62025;BME280;47978;49.118;12.146;2023-06-22T00:43:11;97625.41;;;15.67;100.00
62025;BME280;47978;49.118;12.146;2023-06-22T00:47:13;97615.31;;;15.53;100.00
62025;BME280;47978;49.118;12.146;2023-06-22T00:51:16;97607.63;;;15.50;100.00
62025;BME280;47978;49.118;12.146;2023-06-22T00:55:18;97596.47;;;15.50;100.00
62025;BME280;47978;49.118;12.146;2023-06-22T00:59:21;97593.28;;;15.31;100.00
62025;BME280;47978;49.118;12.146;2023-06-22T01:03:22;97603.13;;;15.37;100.00
62025;BME280;47978;49.118;12.146;2023-06-22T01:07:25;97603.31;;;15.32;100.00
62025;BME280;47978;49.118;12.146;2023-06-22T01:11:31;97593.50;;;15.26;100.00
62025;BME280;47978;49.118;12.146;2023-06-22T01:15:35;97607.25;;;15.22;100.00
62025;BME280;47978;49.118;12.146;2023-06-22T01:19:39;97603.38;;;15.15;100.00
62025;BME280;47978;49.118;12.146;2023-06-22T01:23:50;97607.78;;;15.16;100.00
62025;BME280;47978;49.118;12.146;2023-06-22T01:27:53;97598.63;;;15.15;100.00
62025;BME280;47978;49.118;12.146;2023-06-22T01:31:59;97586.16;;;15.13;100.00
62025;BME280;47978;49.118;12.146;2023-06-22T01:36:02;97590.94;;;15.12;100.00
62025;BME280;47978;49.118;12.146;2023-06-22T01:40:04;97589.63;;;15.10;100.00
62025;BME280;47978;49.118;12.146;2023-06-22T01:44:06;97596.31;;;15.17;100.00
62025;BME280;47978;49.118;12.146;2023-06-22T01:48:09;97610.47;;;15.42;100.00
62025;BME280;47978;49.118;12.146;2023-06-22T01:52:11;97612.81;;;15.22;100.00
62025;BME280;47978;49.118;12.146;2023-06-22T01:56:12;97622.69;;;15.11;100.00
62025;BME280;47978;49.118;12.146;2023-06-22T02:00:14;97625.47;;;15.11;100.00
62025;BME280;47978;49.118;12.146;2023-06-22T02:04:19;97627.66;;;14.97;100.00
62025;BME280;47978;49.118;12.146;2023-06-22T02:08:23;97629.78;;;14.91;100.00
62025;BME280;47978;49.118;12.146;2023-06-22T02:12:26;97632.94;;;14.81;100.00
62025;BME280;47978;49.118;12.146;2023-06-22T02:16:30;97629.03;;;14.73;100.00
62025;BME280;47978;49.118;12.146;2023-06-22T02:20:34;97629.69;;;14.70;100.00
62025;BME280;47978;49.118;12.146;2023-06-22T02:24:37;97622.31;;;14.74;100.00
62025;BME280;47978;49.118;12.146;2023-06-22T02:28:38;97618.22;;;14.72;100.00
62025;BME280;47978;49.118;12.146;2023-06-22T02:32:40;97621.03;;;14.72;100.00
62025;BME280;47978;49.118;12.146;2023-06-22T02:36:43;97618.69;;;14.74;100.00
62025;BME280;47978;49.118;12.146;2023-06-22T02:40:44;97612.44;;;14.85;100.00
62025;BME280;47978;49.118;12.146;2023-06-22T02:44:46;97610.31;;;14.91;100.00
62025;BME280;47978;49.118;12.146;2023-06-22T02:48:56;97607.88;;;14.90;100.00
62025;BME280;47978;49.118;12.146;2023-06-22T02:52:59;97607.09;;;14.80;100.00
62025;BME280;47978;49.118;12.146;2023-06-22T02:57:00;97598.41;;;14.65;100.00
62025;BME280;47978;49.118;12.146;2023-06-22T03:01:02;97602.84;;;14.74;100.00
62025;BME280;47978;49.118;12.146;2023-06-22T03:05:04;97600.88;;;14.75;100.00
62025;BME280;47978;49.118;12.146;2023-06-22T03:09:06;97602.19;;;14.69;100.00
62025;BME280;47978;49.118;12.146;2023-06-22T03:13:08;97604.34;;;14.54;100.00
62025;BME280;47978;49.118;12.146;2023-06-22T03:17:09;97597.75;;;14.50;100.00
62025;BME280;47978;49.118;12.146;2023-06-22T03:21:17;97600.69;;;14.45;100.00
62025;BME280;47978;49.118;12.146;2023-06-22T03:30:05;97597.63;;;14.55;100.00
62025;BME280;47978;49.118;12.146;2023-06-22T03:38:32;97603.84;;;14.61;100.00
62025;BME280;47978;49.118;12.146;2023-06-22T03:42:33;97609.88;;;14.72;100.00
62025;BME280;47978;49.118;12.146;2023-06-22T03:46:36;97615.91;;;14.82;100.00
62025;BME280;47978;49.118;12.146;2023-06-22T03:50:38;97615.91;;;14.82;100.00
62025;BME280;47978;49.118;12.146;2023-06-22T03:54:39;97626.53;;;14.98;100.00
62025;BME280;47978;49.118;12.146;2023-06-22T03:58:40;97623.59;;;14.94;100.00
62025;BME280;47978;49.118;12.146;2023-06-22T04:02:43;97632.25;;;14.93;100.00
62025;BME280;47978;49.118;12.146;2023-06-22T04:06:45;97628.88;;;15.34;100.00
62025;BME280;47978;49.118;12.146;2023-06-22T04:10:46;97630.31;;;15.40;100.00
62025;BME280;47978;49.118;12.146;2023-06-22T04:14:47;97631.66;;;15.34;100.00
62025;BME280;47978;49.118;12.146;2023-06-22T04:18:50;97625.84;;;15.48;100.00
62025;BME280;47978;49.118;12.146;2023-06-22T04:22:52;97642.31;;;15.70;100.00
62025;BME280;47978;49.118;12.146;2023-06-22T04:26:53;97647.59;;;15.93;100.00
62025;BME280;47978;49.118;12.146;2023-06-22T04:30:55;97640.44;;;16.34;100.00
62025;BME280;47978;49.118;12.146;2023-06-22T04:34:57;97643.69;;;16.78;100.00
62025;BME280;47978;49.118;12.146;2023-06-22T04:38:59;97635.09;;;17.16;98.71
62025;BME280;47978;49.118;12.146;2023-06-22T04:43:00;97630.16;;;17.01;100.00
62025;BME280;47978;49.118;12.146;2023-06-22T04:47:02;97625.44;;;17.26;98.78
62025;BME280;47978;49.118;12.146;2023-06-22T04:51:05;97618.25;;;17.74;93.82
62025;BME280;47978;49.118;12.146;2023-06-22T04:55:06;97613.94;;;18.13;91.79
62025;BME280;47978;49.118;12.146;2023-06-22T04:59:08;97613.22;;;18.04;92.59
62025;BME280;47978;49.118;12.146;2023-06-22T05:03:09;97610.19;;;18.09;92.18
62025;BME280;47978;49.118;12.146;2023-06-22T05:07:22;97607.34;;;18.74;90.23
62025;BME280;47978;49.118;12.146;2023-06-22T05:11:24;97605.56;;;20.09;81.96
62025;BME280;47978;49.118;12.146;2023-06-22T05:15:25;97603.38;;;20.53;79.77
62025;BME280;47978;49.118;12.146;2023-06-22T05:19:27;97591.44;;;21.64;76.07
62025;BME280;47978;49.118;12.146;2023-06-22T05:23:29;97589.41;;;21.65;74.97
62025;BME280;47978;49.118;12.146;2023-06-22T05:27:31;97587.31;;;21.85;74.75
62025;BME280;47978;49.118;12.146;2023-06-22T05:31:32;97588.50;;;22.10;73.56
62025;BME280;47978;49.118;12.146;2023-06-22T05:35:34;97575.50;;;23.71;67.56
62025;BME280;47978;49.118;12.146;2023-06-22T05:39:37;97570.34;;;23.84;67.16
62025;BME280;47978;49.118;12.146;2023-06-22T05:43:38;97570.28;;;25.55;63.70
62025;BME280;47978;49.118;12.146;2023-06-22T05:52:23;97569.94;;;27.16;57.76
62025;BME280;47978;49.118;12.146;2023-06-22T06:00:46;97570.09;;;28.44;53.53
62025;BME280;47978;49.118;12.146;2023-06-22T06:09:32;97558.34;;;29.07;53.27
62025;BME280;47978;49.118;12.146;2023-06-22T06:13:34;97550.63;;;29.07;53.66
62025;BME280;47978;49.118;12.146;2023-06-22T06:17:37;97539.94;;;29.15;51.81
62025;BME280;47978;49.118;12.146;2023-06-22T06:26:29;97553.41;;;27.56;57.24
62025;BME280;47978;49.118;12.146;2023-06-22T06:30:40;97539.25;;;28.73;54.82
62025;BME280;47978;49.118;12.146;2023-06-22T06:48:56;97519.19;;;31.81;46.60
62025;BME280;47978;49.118;12.146;2023-06-22T06:52:57;97517.06;;;32.01;45.59
62025;BME280;47978;49.118;12.146;2023-06-22T06:56:58;97503.59;;;33.41;42.67
62025;BME280;47978;49.118;12.146;2023-06-22T07:01:00;97507.59;;;33.18;42.84
62025;BME280;47978;49.118;12.146;2023-06-22T07:05:03;97506.47;;;31.33;46.76
62025;BME280;47978;49.118;12.146;2023-06-22T07:09:04;97503.34;;;32.55;44.21
62025;BME280;47978;49.118;12.146;2023-06-22T07:13:06;97492.91;;;34.27;41.53
62025;BME280;47978;49.118;12.146;2023-06-22T07:17:07;97482.81;;;35.10;40.81
62025;BME280;47978;49.118;12.146;2023-06-22T07:21:10;97474.69;;;34.65;38.80
62025;BME280;47978;49.118;12.146;2023-06-22T07:25:11;97464.22;;;36.01;38.99
62025;BME280;47978;49.118;12.146;2023-06-22T07:29:13;97469.06;;;35.14;38.05
62025;BME280;47978;49.118;12.146;2023-06-22T07:33:14;97471.56;;;34.15;38.82
62025;BME280;47978;49.118;12.146;2023-06-22T07:37:17;97466.09;;;33.61;43.03
62025;BME280;47978;49.118;12.146;2023-06-22T07:41:19;97476.53;;;33.54;40.02
62025;BME280;47978;49.118;12.146;2023-06-22T07:45:20;97474.16;;;31.85;41.54
62025;BME280;47978;49.118;12.146;2023-06-22T07:49:22;97471.06;;;33.22;39.96
62025;BME280;47978;49.118;12.146;2023-06-22T07:53:24;97460.63;;;34.89;37.16
62025;BME280;47978;49.118;12.146;2023-06-22T07:57:26;97455.63;;;33.67;40.95
62025;BME280;47978;49.118;12.146;2023-06-22T08:01:27;97455.63;;;31.90;42.86
62025;BME280;47978;49.118;12.146;2023-06-22T08:05:29;97457.91;;;34.19;39.79
62025;BME280;47978;49.118;12.146;2023-06-22T08:09:32;97459.44;;;33.38;40.70
62025;BME280;47978;49.118;12.146;2023-06-22T08:13:33;97452.75;;;33.67;39.67
62025;BME280;47978;49.118;12.146;2023-06-22T08:17:36;97451.81;;;33.83;39.16
62025;BME280;47978;49.118;12.146;2023-06-22T08:21:37;97444.72;;;35.37;37.81
62025;BME280;47978;49.118;12.146;2023-06-22T08:25:40;97439.38;;;32.03;41.45
62025;BME280;47978;49.118;12.146;2023-06-22T08:29:42;97446.22;;;32.35;41.10
62025;BME280;47978;49.118;12.146;2023-06-22T08:33:43;97451.59;;;31.87;42.82
62025;BME280;47978;49.118;12.146;2023-06-22T08:37:50;97453.78;;;31.34;42.17
62025;BME280;47978;49.118;12.146;2023-06-22T08:41:53;97447.69;;;32.26;42.50
62025;BME280;47978;49.118;12.146;2023-06-22T08:45:54;97435.56;;;32.77;41.62
62025;BME280;47978;49.118;12.146;2023-06-22T08:49:56;97444.84;;;31.81;43.63
62025;BME280;47978;49.118;12.146;2023-06-22T08:53:57;97444.28;;;32.74;41.64
62025;BME280;47978;49.118;12.146;2023-06-22T08:58:00;97434.44;;;31.87;42.08
62025;BME280;47978;49.118;12.146;2023-06-22T09:02:01;97435.81;;;32.83;39.47
62025;BME280;47978;49.118;12.146;2023-06-22T09:06:03;97426.63;;;32.62;40.87
62025;BME280;47978;49.118;12.146;2023-06-22T09:10:05;97444.03;;;31.80;41.59
62025;BME280;47978;49.118;12.146;2023-06-22T09:14:08;97430.66;;;33.42;38.46
62025;BME280;47978;49.118;12.146;2023-06-22T09:18:10;97428.47;;;32.56;39.61
62025;BME280;47978;49.118;12.146;2023-06-22T09:22:11;97424.91;;;33.67;38.43
62025;BME280;47978;49.118;12.146;2023-06-22T09:26:13;97422.41;;;32.25;39.14
62025;BME280;47978;49.118;12.146;2023-06-22T09:30:15;97428.56;;;32.65;39.62
62025;BME280;47978;49.118;12.146;2023-06-22T09:34:17;97407.72;;;33.29;37.55
62025;BME280;47978;49.118;12.146;2023-06-22T09:38:18;97421.28;;;33.03;37.07
62025;BME280;47978;49.118;12.146;2023-06-22T09:42:20;97408.66;;;33.39;35.80
62025;BME280;47978;49.118;12.146;2023-06-22T09:46:22;97407.50;;;32.72;37.56
62025;BME280;47978;49.118;12.146;2023-06-22T09:50:24;97399.34;;;32.16;39.29
62025;BME280;47978;49.118;12.146;2023-06-22T09:54:25;97406.63;;;31.58;40.05
62025;BME280;47978;49.118;12.146;2023-06-22T09:58:27;97394.41;;;31.42;41.26
62025;BME280;47978;49.118;12.146;2023-06-22T10:02:30;97385.03;;;31.41;40.32
62025;BME280;47978;49.118;12.146;2023-06-22T10:06:32;97384.66;;;30.90;42.20
62025;BME280;47978;49.118;12.146;2023-06-22T10:10:33;97381.22;;;30.79;43.09
62025;BME280;47978;49.118;12.146;2023-06-22T10:14:34;97381.56;;;31.17;41.59
62025;BME280;47978;49.118;12.146;2023-06-22T10:18:37;97379.06;;;31.35;41.40
62025;BME280;47978;49.118;12.146;2023-06-22T10:22:39;97379.41;;;31.99;40.61
62025;BME280;47978;49.118;12.146;2023-06-22T10:26:41;97361.28;;;31.44;40.89
62025;BME280;47978;49.118;12.146;2023-06-22T10:30:42;97357.44;;;31.80;38.96
62025;BME280;47978;49.118;12.146;2023-06-22T10:34:45;97354.75;;;31.44;39.23
62025;BME280;47978;49.118;12.146;2023-06-22T10:38:47;97352.88;;;32.12;39.13
62025;BME280;47978;49.118;12.146;2023-06-22T10:42:48;97335.00;;;31.78;39.92
62025;BME280;47978;49.118;12.146;2023-06-22T10:46:50;97331.97;;;32.28;37.96
62025;BME280;47978;49.118;12.146;2023-06-22T10:50:53;97334.66;;;32.47;38.46
62025;BME280;47978;49.118;12.146;2023-06-22T10:54:54;97323.41;;;32.66;37.39
62025;BME280;47978;49.118;12.146;2023-06-22T10:58:56;97312.19;;;32.72;40.63
62025;BME280;47978;49.118;12.146;2023-06-22T11:02:57;97310.03;;;31.95;39.30
62025;BME280;47978;49.118;12.146;2023-06-22T11:07:00;97302.84;;;32.03;39.09
62025;BME280;47978;49.118;12.146;2023-06-22T11:11:01;97298.91;;;32.52;39.06
62025;BME280;47978;49.118;12.146;2023-06-22T11:15:03;97304.66;;;31.97;38.56
62025;BME280;47978;49.118;12.146;2023-06-22T11:19:05;97290.09;;;32.59;37.66
62025;BME280;47978;49.118;12.146;2023-06-22T11:23:08;97279.41;;;32.34;37.29
62025;BME280;47978;49.118;12.146;2023-06-22T11:27:09;97280.00;;;31.87;36.65
62025;BME280;47978;49.118;12.146;2023-06-22T11:31:11;97268.19;;;32.40;37.23
62025;BME280;47978;49.118;12.146;2023-06-22T11:35:26;97265.59;;;32.45;37.40
62025;BME280;47978;49.118;12.146;2023-06-22T11:39:29;97252.47;;;32.83;38.94
62025;BME280;47978;49.118;12.146;2023-06-22T11:43:41;97238.16;;;32.44;39.04
62025;BME280;47978;49.118;12.146;2023-06-22T11:47:43;97251.94;;;32.37;38.06
62025;BME280;47978;49.118;12.146;2023-06-22T11:51:44;97260.06;;;32.64;39.36
62025;BME280;47978;49.118;12.146;2023-06-22T11:55:47;97253.25;;;33.09;38.32
62025;BME280;47978;49.118;12.146;2023-06-22T11:59:48;97235.84;;;32.90;37.22
62025;BME280;47978;49.118;12.146;2023-06-22T12:03:50;97240.22;;;32.82;36.88
62025;BME280;47978;49.118;12.146;2023-06-22T12:07:52;97247.50;;;33.09;37.86
62025;BME280;47978;49.118;12.146;2023-06-22T12:11:55;97241.59;;;32.90;36.36
62025;BME280;47978;49.118;12.146;2023-06-22T12:15:57;97241.63;;;32.26;38.03
62025;BME280;47978;49.118;12.146;2023-06-22T12:19:58;97241.63;;;32.65;36.45
62025;BME280;47978;49.118;12.146;2023-06-22T12:24:00;97236.13;;;32.45;38.79
62025;BME280;47978;49.118;12.146;2023-06-22T12:28:03;97241.16;;;32.66;39.20
62025;BME280;47978;49.118;12.146;2023-06-22T12:32:04;97243.19;;;32.79;40.40
62025;BME280;47978;49.118;12.146;2023-06-22T12:36:06;97243.19;;;32.79;39.08
62025;BME280;47978;49.118;12.146;2023-06-22T12:40:08;97229.13;;;32.33;38.55
62025;BME280;47978;49.118;12.146;2023-06-22T12:44:11;97223.75;;;32.35;38.49
62025;BME280;47978;49.118;12.146;2023-06-22T12:48:13;97220.31;;;32.53;37.87
62025;BME280;47978;49.118;12.146;2023-06-22T12:52:14;97211.81;;;32.75;39.05
62025;BME280;47978;49.118;12.146;2023-06-22T12:56:16;97208.88;;;32.53;38.91
62025;BME280;47978;49.118;12.146;2023-06-22T13:00:19;97202.22;;;32.69;39.01
62025;BME280;47978;49.118;12.146;2023-06-22T13:04:20;97199.66;;;32.84;39.47
62025;BME280;47978;49.118;12.146;2023-06-22T13:08:22;97190.31;;;32.70;38.23
62025;BME280;47978;49.118;12.146;2023-06-22T13:12:36;97195.75;;;32.90;40.06
62025;BME280;47978;49.118;12.146;2023-06-22T13:16:38;97186.47;;;32.99;40.06
62025;BME280;47978;49.118;12.146;2023-06-22T13:20:40;97186.25;;;33.15;38.22
62025;BME280;47978;49.118;12.146;2023-06-22T13:24:41;97171.22;;;32.89;38.78
62025;BME280;47978;49.118;12.146;2023-06-22T13:28:43;97173.06;;;33.18;38.20
62025;BME280;47978;49.118;12.146;2023-06-22T13:32:46;97170.56;;;33.42;40.19
62025;BME280;47978;49.118;12.146;2023-06-22T13:36:47;97164.03;;;33.20;37.35
62025;BME280;47978;49.118;12.146;2023-06-22T13:40:49;97149.28;;;33.30;39.67
62025;BME280;47978;49.118;12.146;2023-06-22T13:44:50;97141.03;;;33.86;38.00
62025;BME280;47978;49.118;12.146;2023-06-22T13:48:53;97122.28;;;34.03;36.81
62025;BME280;47978;49.118;12.146;2023-06-22T13:52:57;97109.72;;;34.10;37.45
62025;BME280;47978;49.118;12.146;2023-06-22T13:56:59;97121.06;;;34.13;38.92
62025;BME280;47978;49.118;12.146;2023-06-22T14:01:00;97116.16;;;33.83;39.40
62025;BME280;47978;49.118;12.146;2023-06-22T14:05:03;97112.88;;;33.62;37.68
62025;BME280;47978;49.118;12.146;2023-06-22T14:09:05;97113.34;;;34.01;38.42
62025;BME280;47978;49.118;12.146;2023-06-22T14:13:06;97128.09;;;33.28;38.35
62025;BME280;47978;49.118;12.146;2023-06-22T14:17:08;97117.31;;;33.41;40.72
62025;BME280;47978;49.118;12.146;2023-06-22T14:21:10;97101.31;;;33.00;39.77
62025;BME280;47978;49.118;12.146;2023-06-22T14:25:12;97092.00;;;32.96;39.95
62025;BME280;47978;49.118;12.146;2023-06-22T14:29:13;97099.56;;;33.02;41.01
62025;BME280;47978;49.118;12.146;2023-06-22T14:33:15;97099.50;;;33.15;41.23
62025;BME280;47978;49.118;12.146;2023-06-22T14:37:18;97100.06;;;33.54;41.38
62025;BME280;47978;49.118;12.146;2023-06-22T14:41:19;97105.47;;;34.23;38.38
62025;BME280;47978;49.118;12.146;2023-06-22T14:45:21;97092.31;;;34.81;37.69
62025;BME280;47978;49.118;12.146;2023-06-22T14:49:22;97097.34;;;34.31;37.04
62025;BME280;47978;49.118;12.146;2023-06-22T14:53:25;97089.78;;;33.66;38.58
62025;BME280;47978;49.118;12.146;2023-06-22T14:57:27;97090.53;;;33.35;38.01
62025;BME280;47978;49.118;12.146;2023-06-22T15:01:28;97081.94;;;33.57;37.45
62025;BME280;47978;49.118;12.146;2023-06-22T15:05:29;97082.63;;;33.70;38.38
62025;BME280;47978;49.118;12.146;2023-06-22T15:09:32;97082.28;;;33.68;37.56
62025;BME280;47978;49.118;12.146;2023-06-22T15:13:34;97074.38;;;33.19;37.63
62025;BME280;47978;49.118;12.146;2023-06-22T15:17:36;97071.72;;;33.03;39.09
62025;BME280;47978;49.118;12.146;2023-06-22T15:21:37;97062.16;;;33.28;37.39
62025;BME280;47978;49.118;12.146;2023-06-22T15:25:40;97051.16;;;33.26;37.63
62025;BME280;47978;49.118;12.146;2023-06-22T15:29:42;97040.25;;;33.12;38.28
62025;BME280;47978;49.118;12.146;2023-06-22T15:33:43;97026.97;;;33.27;37.07
62025;BME280;47978;49.118;12.146;2023-06-22T15:37:45;97014.31;;;33.15;37.92
62025;BME280;47978;49.118;12.146;2023-06-22T15:41:47;96997.63;;;33.23;37.89
62025;BME280;47978;49.118;12.146;2023-06-22T15:45:49;96979.97;;;33.56;38.48
62025;BME280;47978;49.118;12.146;2023-06-22T15:49:50;96973.94;;;33.72;39.26
62025;BME280;47978;49.118;12.146;2023-06-22T15:53:52;96967.75;;;33.74;37.63
62025;BME280;47978;49.118;12.146;2023-06-22T15:57:55;96970.66;;;33.43;38.00
62025;BME280;47978;49.118;12.146;2023-06-22T16:01:56;96960.69;;;33.16;38.32
62025;BME280;47978;49.118;12.146;2023-06-22T16:05:58;96954.00;;;33.19;38.12
62025;BME280;47978;49.118;12.146;2023-06-22T16:09:59;96950.03;;;32.95;37.84
62025;BME280;47978;49.118;12.146;2023-06-22T16:14:02;96944.72;;;33.06;37.33
62025;BME280;47978;49.118;12.146;2023-06-22T16:18:04;96936.06;;;33.28;39.58
62025;BME280;47978;49.118;12.146;2023-06-22T16:22:05;96927.19;;;33.04;41.20
62025;BME280;47978;49.118;12.146;2023-06-22T16:26:08;96919.13;;;32.89;38.57
62025;BME280;47978;49.118;12.146;2023-06-22T16:30:11;96906.69;;;33.14;43.13
62025;BME280;47978;49.118;12.146;2023-06-22T16:34:12;96908.56;;;32.99;41.51
62025;BME280;47978;49.118;12.146;2023-06-22T16:38:14;96907.47;;;32.84;41.45
62025;BME280;47978;49.118;12.146;2023-06-22T16:42:15;96905.69;;;32.99;41.46
62025;BME280;47978;49.118;12.146;2023-06-22T16:46:18;96894.44;;;33.14;38.13
62025;BME280;47978;49.118;12.146;2023-06-22T16:50:20;96897.00;;;32.90;41.80
62025;BME280;47978;49.118;12.146;2023-06-22T16:54:21;96885.16;;;33.01;39.58
62025;BME280;47978;49.118;12.146;2023-06-22T16:58:24;96888.72;;;32.52;41.40
62025;BME280;47978;49.118;12.146;2023-06-22T17:02:27;96877.63;;;32.41;39.63
62025;BME280;47978;49.118;12.146;2023-06-22T17:06:29;96873.97;;;32.40;40.23
62025;BME280;47978;49.118;12.146;2023-06-22T17:10:31;96878.19;;;32.48;42.16
62025;BME280;47978;49.118;12.146;2023-06-22T17:14:33;96876.41;;;32.20;42.34
62025;BME280;47978;49.118;12.146;2023-06-22T17:18:36;96865.28;;;32.22;43.62
62025;BME280;47978;49.118;12.146;2023-06-22T17:22:37;96854.09;;;32.15;43.13
62025;BME280;47978;49.118;12.146;2023-06-22T17:26:39;96833.63;;;30.99;46.68
62025;BME280;47978;49.118;12.146;2023-06-22T17:30:40;96836.34;;;31.15;45.78
62025;BME280;47978;49.118;12.146;2023-06-22T17:34:43;96847.78;;;31.03;46.21
62025;BME280;47978;49.118;12.146;2023-06-22T17:38:44;96874.03;;;31.10;46.93
62025;BME280;47978;49.118;12.146;2023-06-22T17:42:46;96891.88;;;30.89;48.47
62025;BME280;47978;49.118;12.146;2023-06-22T17:46:50;96901.34;;;30.02;50.50
62025;BME280;47978;49.118;12.146;2023-06-22T17:50:54;96896.03;;;30.17;53.04
62025;BME280;47978;49.118;12.146;2023-06-22T17:54:56;96879.19;;;29.64;52.77
62025;BME280;47978;49.118;12.146;2023-06-22T17:59:03;96894.06;;;29.55;55.14
62025;BME280;47978;49.118;12.146;2023-06-22T18:03:05;96918.38;;;29.60;56.31
62025;BME280;47978;49.118;12.146;2023-06-22T18:07:08;96924.06;;;29.44;56.48
62025;BME280;47978;49.118;12.146;2023-06-22T18:11:10;96933.75;;;28.77;59.31
62025;BME280;47978;49.118;12.146;2023-06-22T18:15:11;96931.91;;;28.51;59.79
62025;BME280;47978;49.118;12.146;2023-06-22T18:19:13;96943.50;;;28.40;60.56
62025;BME280;47978;49.118;12.146;2023-06-22T18:23:16;96959.09;;;28.32;61.39
62025;BME280;47978;49.118;12.146;2023-06-22T18:27:19;96970.34;;;28.19;61.97
62025;BME280;47978;49.118;12.146;2023-06-22T18:31:22;96998.66;;;28.46;62.03
62025;BME280;47978;49.118;12.146;2023-06-22T18:35:23;97012.88;;;28.02;63.58
62025;BME280;47978;49.118;12.146;2023-06-22T18:39:26;97002.84;;;27.71;63.60
62025;BME280;47978;49.118;12.146;2023-06-22T18:43:28;96957.47;;;26.89;70.13
62025;BME280;47978;49.118;12.146;2023-06-22T18:47:30;96941.53;;;26.38;75.37
62025;BME280;47978;49.118;12.146;2023-06-22T18:51:42;96946.25;;;25.79;78.47
62025;BME280;47978;49.118;12.146;2023-06-22T18:55:50;96951.41;;;26.26;74.76
62025;BME280;47978;49.118;12.146;2023-06-22T18:59:58;96971.44;;;25.70;80.60
62025;BME280;47978;49.118;12.146;2023-06-22T19:04:00;97010.09;;;25.43;82.87
62025;BME280;47978;49.118;12.146;2023-06-22T19:08:01;97025.34;;;24.97;84.91
62025;BME280;47978;49.118;12.146;2023-06-22T19:12:20;97034.31;;;24.81;86.48
62025;BME280;47978;49.118;12.146;2023-06-22T19:16:24;97016.53;;;24.80;88.90
62025;BME280;47978;49.118;12.146;2023-06-22T19:20:32;97019.19;;;25.09;89.13
62025;BME280;47978;49.118;12.146;2023-06-22T19:24:47;97006.44;;;24.79;90.63
62025;BME280;47978;49.118;12.146;2023-06-22T19:28:50;96987.72;;;24.12;96.15
62025;BME280;47978;49.118;12.146;2023-06-22T19:32:52;96976.91;;;23.74;98.34
62025;BME280;47978;49.118;12.146;2023-06-22T19:36:54;96996.16;;;24.22;87.59
62025;BME280;47978;49.118;12.146;2023-06-22T19:40:55;96871.56;;;23.92;93.61
62025;BME280;47978;49.118;12.146;2023-06-22T19:44:59;96807.09;;;23.72;96.48
62025;BME280;47978;49.118;12.146;2023-06-22T19:49:01;96756.41;;;23.37;98.69
62025;BME280;47978;49.118;12.146;2023-06-22T19:53:02;96708.56;;;23.04;93.60
62025;BME280;47978;49.118;12.146;2023-06-22T19:57:07;96684.03;;;22.87;94.13
62025;BME280;47978;49.118;12.146;2023-06-22T20:01:10;96679.25;;;22.70;97.01
62025;BME280;47978;49.118;12.146;2023-06-22T20:05:12;96712.25;;;22.73;98.42
62025;BME280;47978;49.118;12.146;2023-06-22T20:09:13;96755.31;;;22.73;98.47
62025;BME280;47978;49.118;12.146;2023-06-22T20:13:15;96737.59;;;22.87;97.51
62025;BME280;47978;49.118;12.146;2023-06-22T20:17:18;96708.66;;;22.54;100.00
62025;BME280;47978;49.118;12.146;2023-06-22T20:21:19;96742.03;;;22.70;99.64
62025;BME280;47978;49.118;12.146;2023-06-22T20:25:21;96785.13;;;22.81;95.80
62025;BME280;47978;49.118;12.146;2023-06-22T20:29:24;96848.38;;;23.20;90.89
62025;BME280;47978;49.118;12.146;2023-06-22T20:33:27;96909.59;;;23.33;89.59
62025;BME280;47978;49.118;12.146;2023-06-22T20:37:28;96953.94;;;23.11;92.86
62025;BME280;47978;49.118;12.146;2023-06-22T20:41:30;96993.28;;;22.65;96.55
62025;BME280;47978;49.118;12.146;2023-06-22T20:45:31;97077.09;;;22.79;97.75
62025;BME280;47978;49.118;12.146;2023-06-22T20:49:46;97126.97;;;23.76;80.48
62025;BME280;47978;49.118;12.146;2023-06-22T20:53:47;97151.56;;;23.90;77.90
62025;BME280;47978;49.118;12.146;2023-06-22T20:57:49;97181.44;;;23.77;78.01
62025;BME280;47978;49.118;12.146;2023-06-22T21:01:50;97172.50;;;23.57;75.70
62025;BME280;47978;49.118;12.146;2023-06-22T21:05:53;97226.47;;;23.38;71.05
62025;BME280;47978;49.118;12.146;2023-06-22T21:09:54;97290.66;;;22.89;71.04
62025;BME280;47978;49.118;12.146;2023-06-22T21:13:56;97459.72;;;22.75;73.33
62025;BME280;47978;49.118;12.146;2023-06-22T21:18:14;97449.03;;;21.90;82.86
62025;BME280;47978;49.118;12.146;2023-06-22T21:22:17;97431.44;;;20.90;95.08
62025;BME280;47978;49.118;12.146;2023-06-22T21:26:18;97353.75;;;20.32;99.79
62025;BME280;47978;49.118;12.146;2023-06-22T21:30:20;97279.81;;;20.02;100.00
62025;BME280;47978;49.118;12.146;2023-06-22T21:34:22;97260.56;;;19.81;100.00
62025;BME280;47978;49.118;12.146;2023-06-22T21:38:24;97183.44;;;19.51;100.00
62025;BME280;47978;49.118;12.146;2023-06-22T21:42:26;97218.00;;;19.55;100.00
62025;BME280;47978;49.118;12.146;2023-06-22T21:46:27;97270.34;;;19.48;100.00